createdAt,value
2022-10-20T00:00:37.604Z,68.41
2022-10-20T00:01:40.012Z,68.45
2022-10-20T00:02:42.226Z,68.42
2022-10-20T00:03:45.708Z,68.34
2022-10-20T00:04:47.882Z,68.42
2022-10-20T00:05:50.242Z,68.47
2022-10-20T00:06:52.410Z,68.35
2022-10-20T00:07:54.607Z,68.23
2022-10-20T00:08:58.434Z,68.35
2022-10-20T00:10:00.660Z,68.51
2022-10-20T00:11:02.921Z,68.62
2022-10-20T00:12:05.556Z,68.38
2022-10-20T00:13:10.541Z,68.43
2022-10-20T00:14:13.124Z,68.31
2022-10-20T00:15:15.378Z,68.35
2022-10-20T00:16:18.666Z,68.33
2022-10-20T00:17:20.875Z,68.37
2022-10-20T00:18:27.370Z,68.60
2022-10-20T00:19:29.583Z,68.73
2022-10-20T00:20:31.981Z,68.62
2022-10-20T00:21:34.199Z,68.58
2022-10-20T00:22:39.289Z,68.64
2022-10-20T00:23:42.300Z,68.52
2022-10-20T00:24:47.370Z,68.45
2022-10-20T00:25:51.956Z,68.51
2022-10-20T00:26:54.190Z,68.37
2022-10-20T00:27:56.411Z,68.33
2022-10-20T00:29:01.254Z,68.49
2022-10-20T00:30:04.279Z,68.47
2022-10-20T00:31:06.859Z,68.46
2022-10-20T00:32:11.677Z,68.35
2022-10-20T00:33:13.865Z,68.42
2022-10-20T00:34:18.397Z,68.51
2022-10-20T00:35:20.667Z,68.40
2022-10-20T00:36:23.873Z,68.44
2022-10-20T00:37:26.173Z,68.47
2022-10-20T00:38:29.712Z,68.50
2022-10-20T00:39:31.971Z,68.48
2022-10-20T00:40:34.206Z,68.42
2022-10-20T00:41:36.435Z,68.44
2022-10-20T00:42:41.165Z,68.48
2022-10-20T00:43:46.173Z,68.46
2022-10-20T00:44:56.296Z,68.50
2022-10-20T00:45:58.557Z,68.47
2022-10-20T00:47:01.450Z,68.44
2022-10-20T00:48:12.752Z,68.54
2022-10-20T00:49:23.615Z,68.55
2022-10-20T00:50:30.366Z,68.62
2022-10-20T00:51:34.100Z,68.54
2022-10-20T00:52:38.160Z,68.65
2022-10-20T00:53:40.519Z,68.51
2022-10-20T00:54:43.831Z,68.69
2022-10-20T00:55:49.026Z,68.76
2022-10-20T00:56:53.426Z,68.69
2022-10-20T00:57:58.015Z,68.70
2022-10-20T00:59:04.515Z,68.73
2022-10-20T01:00:08.979Z,68.63
2022-10-20T01:01:12.532Z,68.60
2022-10-20T01:02:14.850Z,68.63
2022-10-20T01:03:28.301Z,68.50
2022-10-20T01:04:32.208Z,68.54
2022-10-20T01:05:37.465Z,68.46
2022-10-20T01:06:42.356Z,68.48
2022-10-20T01:07:44.551Z,68.43
2022-10-20T01:08:47.152Z,68.47
2022-10-20T01:09:49.727Z,68.45
2022-10-20T01:11:16.057Z,68.41
2022-10-20T01:12:55.846Z,68.42
2022-10-20T01:14:18.248Z,68.44
2022-10-20T01:15:32.633Z,68.39
2022-10-20T01:16:53.777Z,68.36
2022-10-20T01:18:10.025Z,68.32
2022-10-20T01:19:43.406Z,68.32
2022-10-20T01:20:45.709Z,68.36
2022-10-20T01:22:08.713Z,68.56
2022-10-20T01:23:33.974Z,68.54
2022-10-20T01:25:01.082Z,68.32
2022-10-20T01:26:03.389Z,68.34
2022-10-20T01:27:30.304Z,68.35
2022-10-20T01:28:37.044Z,68.49
2022-10-20T01:30:02.153Z,68.44
2022-10-20T01:31:17.090Z,68.33
2022-10-20T01:32:40.428Z,68.50
2022-10-20T01:34:05.163Z,68.48
2022-10-20T01:35:12.270Z,68.42
2022-10-20T01:36:25.148Z,68.50
2022-10-20T01:37:52.102Z,68.60
2022-10-20T01:39:34.218Z,68.49
2022-10-20T01:40:45.235Z,68.49
2022-10-20T01:41:56.463Z,68.64
2022-10-20T01:43:03.981Z,68.58
2022-10-20T01:44:11.102Z,68.51
2022-10-20T01:45:15.877Z,68.71
2022-10-20T01:46:20.596Z,68.69
2022-10-20T01:47:25.946Z,68.61
2022-10-20T01:48:33.281Z,68.70
2022-10-20T01:49:35.955Z,68.74
2022-10-20T01:50:39.958Z,68.66
2022-10-20T01:53:07.019Z,68.86
2022-10-20T01:54:21.151Z,69.22
2022-10-20T01:55:23.587Z,68.97
2022-10-20T01:56:57.798Z,69.20
2022-10-20T01:58:16.032Z,69.36
2022-10-20T01:59:32.095Z,69.44
2022-10-20T02:00:38.394Z,69.47
2022-10-20T02:02:11.653Z,69.49
2022-10-20T02:03:46.232Z,69.65
2022-10-20T02:05:01.163Z,69.81
2022-10-20T02:06:09.441Z,69.95
2022-10-20T02:07:20.858Z,69.99
2022-10-20T02:08:26.120Z,70.10
2022-10-20T02:09:40.351Z,70.16
2022-10-20T02:10:52.709Z,70.22
2022-10-20T02:12:08.513Z,70.20
2022-10-20T02:13:14.777Z,70.20
2022-10-20T02:14:20.288Z,70.24
2022-10-20T02:15:26.611Z,70.40
2022-10-20T02:16:33.650Z,70.43
2022-10-20T02:17:39.853Z,70.38
2022-10-20T02:18:44.042Z,70.47
2022-10-20T02:19:54.608Z,70.44
2022-10-20T02:21:00.696Z,70.70
2022-10-20T02:22:04.440Z,70.64
2022-10-20T02:23:07.917Z,70.75
2022-10-20T02:24:10.627Z,70.56
2022-10-20T02:25:13.777Z,70.71
2022-10-20T02:26:19.460Z,70.94
2022-10-20T02:27:32.845Z,70.81
2022-10-20T02:28:37.584Z,70.76
2022-10-20T02:29:48.864Z,70.83
2022-10-20T02:30:51.751Z,70.77
2022-10-20T02:31:55.292Z,70.79
2022-10-20T02:32:57.491Z,70.81
2022-10-20T02:33:59.827Z,70.62
2022-10-20T02:35:14.999Z,70.75
2022-10-20T02:36:19.518Z,70.89
2022-10-20T02:37:21.704Z,70.68
2022-10-20T02:38:24.339Z,70.81
2022-10-20T02:39:26.802Z,70.86
2022-10-20T02:40:29.246Z,70.81
2022-10-20T02:41:31.511Z,70.81
2022-10-20T02:42:33.821Z,70.79
2022-10-20T02:43:36.053Z,70.86
2022-10-20T02:44:41.186Z,70.91
2022-10-20T02:45:43.483Z,70.88
2022-10-20T02:46:45.788Z,70.85
2022-10-20T02:47:47.960Z,70.87
2022-10-20T02:48:50.166Z,70.92
2022-10-20T02:49:52.404Z,71.15
2022-10-20T02:50:54.593Z,70.97
2022-10-20T02:51:56.784Z,71.04
2022-10-20T02:52:58.959Z,71.07
2022-10-20T02:54:01.264Z,71.15
2022-10-20T02:55:06.820Z,71.18
2022-10-20T02:56:09.080Z,71.17
2022-10-20T02:57:11.396Z,71.28
2022-10-20T02:58:16.042Z,71.34
2022-10-20T02:59:18.309Z,71.40
2022-10-20T03:00:21.049Z,71.36
2022-10-20T03:01:24.944Z,71.53
2022-10-20T03:02:27.231Z,71.46
2022-10-20T03:03:29.531Z,71.38
2022-10-20T03:04:31.831Z,71.40
2022-10-20T03:05:38.559Z,71.47
2022-10-20T03:06:41.953Z,71.64
2022-10-20T03:07:44.295Z,71.44
2022-10-20T03:08:46.541Z,71.46
2022-10-20T03:09:49.158Z,71.40
2022-10-20T03:10:51.442Z,71.56
2022-10-20T03:11:53.754Z,71.45
2022-10-20T03:12:55.975Z,71.65
2022-10-20T03:13:58.292Z,71.72
2022-10-20T03:15:00.535Z,71.75
2022-10-20T03:16:02.942Z,71.56
2022-10-20T03:17:05.112Z,71.60
2022-10-20T03:18:07.392Z,71.55
2022-10-20T03:19:11.652Z,71.64
2022-10-20T03:20:14.201Z,71.59
2022-10-20T03:21:16.447Z,71.81
2022-10-20T03:22:18.673Z,71.51
2022-10-20T03:23:21.575Z,71.60
2022-10-20T03:24:23.890Z,71.46
2022-10-20T03:25:26.229Z,71.46
2022-10-20T03:26:28.621Z,71.49
2022-10-20T03:27:30.834Z,71.42
2022-10-20T03:28:34.171Z,71.48
2022-10-20T03:29:39.526Z,71.45
2022-10-20T03:30:41.772Z,71.29
2022-10-20T03:31:44.234Z,71.52
2022-10-20T03:32:46.454Z,71.43
2022-10-20T03:33:48.739Z,71.45
2022-10-20T03:34:50.898Z,71.48
2022-10-20T03:35:53.102Z,71.53
2022-10-20T03:36:55.383Z,71.35
2022-10-20T03:37:57.564Z,71.34
2022-10-20T03:39:02.001Z,71.17
2022-10-20T03:40:04.637Z,70.97
2022-10-20T03:41:06.871Z,71.16
2022-10-20T03:42:09.267Z,71.19
2022-10-20T03:43:11.756Z,71.24
2022-10-20T03:44:13.991Z,71.16
2022-10-20T03:45:18.598Z,71.16
2022-10-20T03:46:21.065Z,71.12
2022-10-20T03:47:23.229Z,71.03
2022-10-20T03:48:25.454Z,70.97
2022-10-20T03:49:27.752Z,71.03
2022-10-20T03:50:29.984Z,71.06
2022-10-20T03:51:32.204Z,71.08
2022-10-20T03:52:34.757Z,71.14
2022-10-20T03:53:37.309Z,71.15
2022-10-20T03:54:40.952Z,71.05
2022-10-20T03:55:43.178Z,71.04
2022-10-20T03:56:45.377Z,71.01
2022-10-20T03:57:50.695Z,71.09
2022-10-20T03:58:53.000Z,70.98
2022-10-20T03:59:55.293Z,70.82
2022-10-20T04:00:57.890Z,70.94
2022-10-20T04:02:00.266Z,70.84
2022-10-20T04:03:02.505Z,70.79
2022-10-20T04:04:04.799Z,70.86
2022-10-20T04:05:08.112Z,70.85
2022-10-20T04:06:12.058Z,70.88
2022-10-20T04:07:14.236Z,70.83
2022-10-20T04:08:16.414Z,70.88
2022-10-20T04:09:18.614Z,70.78
2022-10-20T04:10:23.348Z,70.88
2022-10-20T04:11:27.078Z,70.81
2022-10-20T04:12:29.431Z,70.83
2022-10-20T04:13:31.612Z,70.82
2022-10-20T04:14:33.801Z,70.71
2022-10-20T04:15:36.099Z,70.64
2022-10-20T04:16:38.400Z,70.58
2022-10-20T04:17:40.634Z,70.58
2022-10-20T04:18:42.868Z,70.47
2022-10-20T04:19:45.728Z,70.35
2022-10-20T04:20:48.775Z,70.47
2022-10-20T04:21:50.982Z,70.48
2022-10-20T04:22:53.891Z,70.43
2022-10-20T04:23:56.116Z,70.44
2022-10-20T04:24:58.507Z,70.30
2022-10-20T04:26:12.914Z,70.34
2022-10-20T04:27:15.444Z,70.21
2022-10-20T04:28:19.802Z,70.00
2022-10-20T04:29:22.222Z,70.10
2022-10-20T04:30:24.388Z,70.24
2022-10-20T04:31:26.583Z,70.10
2022-10-20T04:32:28.769Z,70.16
2022-10-20T04:33:31.142Z,70.20
2022-10-20T04:34:33.489Z,70.20
2022-10-20T04:35:35.801Z,70.23
2022-10-20T04:36:38.105Z,70.11
2022-10-20T04:37:40.439Z,70.04
2022-10-20T04:38:42.692Z,70.16
2022-10-20T04:39:45.982Z,70.02
2022-10-20T04:40:54.799Z,70.13
2022-10-20T04:41:57.106Z,70.00
2022-10-20T04:43:01.086Z,70.05
2022-10-20T04:44:03.486Z,70.05
2022-10-20T04:45:06.235Z,70.01
2022-10-20T04:46:09.002Z,70.00
2022-10-20T04:47:12.086Z,69.92
2022-10-20T04:48:14.347Z,69.65
2022-10-20T04:49:16.700Z,69.81
2022-10-20T04:50:18.939Z,69.82
2022-10-20T04:51:33.087Z,69.76
2022-10-20T04:52:35.530Z,69.64
2022-10-20T04:53:38.482Z,69.70
2022-10-20T04:54:40.801Z,69.71
2022-10-20T04:55:43.040Z,69.72
2022-10-20T04:56:45.249Z,69.76
2022-10-20T04:57:47.489Z,69.71
2022-10-20T04:58:57.816Z,69.84
2022-10-20T05:00:00.074Z,69.61
2022-10-20T05:01:10.012Z,69.70
2022-10-20T05:02:12.343Z,69.66
2022-10-20T05:03:14.697Z,69.71
2022-10-20T05:04:22.040Z,69.75
2022-10-20T05:05:24.349Z,69.70
2022-10-20T05:06:29.065Z,69.83
2022-10-20T05:07:31.316Z,69.76
2022-10-20T05:08:33.589Z,69.82
2022-10-20T05:09:35.887Z,69.75
2022-10-20T05:10:38.175Z,69.67
2022-10-20T05:11:40.409Z,69.72
2022-10-20T05:12:42.736Z,69.79
2022-10-20T05:13:45.516Z,69.75
2022-10-20T05:14:47.715Z,69.83
2022-10-20T05:15:55.182Z,69.88
2022-10-20T05:16:58.188Z,69.88
2022-10-20T05:18:00.410Z,69.91
2022-10-20T05:19:03.356Z,69.96
2022-10-20T05:20:06.216Z,69.86
2022-10-20T05:21:14.969Z,69.98
2022-10-20T05:22:17.196Z,69.87
2022-10-20T05:23:19.552Z,69.81
2022-10-20T05:24:29.156Z,69.80
2022-10-20T05:25:36.589Z,69.84
2022-10-20T05:26:39.178Z,69.91
2022-10-20T05:27:41.412Z,69.89
2022-10-20T05:28:45.994Z,69.55
2022-10-20T05:29:51.005Z,69.69
2022-10-20T05:30:55.560Z,69.74
2022-10-20T05:32:00.074Z,69.78
2022-10-20T05:33:03.527Z,69.77
2022-10-20T05:34:06.295Z,69.75
2022-10-20T05:35:08.827Z,69.69
2022-10-20T05:36:19.392Z,69.57
2022-10-20T05:37:27.125Z,69.54
2022-10-20T05:38:29.496Z,69.60
2022-10-20T05:39:31.763Z,69.66
2022-10-20T05:40:33.967Z,69.65
2022-10-20T05:41:38.722Z,69.75
2022-10-20T05:42:41.507Z,69.73
2022-10-20T05:43:50.866Z,69.60
2022-10-20T05:44:53.148Z,69.66
2022-10-20T05:45:55.444Z,69.53
2022-10-20T05:47:05.078Z,69.71
2022-10-20T05:48:07.432Z,69.76
2022-10-20T05:49:15.623Z,69.75
2022-10-20T05:50:18.192Z,69.66
2022-10-20T05:51:26.210Z,69.59
2022-10-20T05:52:30.722Z,69.51
2022-10-20T05:53:33.679Z,69.46
2022-10-20T05:54:38.987Z,69.49
2022-10-20T05:55:41.222Z,69.55
2022-10-20T05:56:43.958Z,69.70
2022-10-20T05:57:49.528Z,69.58
2022-10-20T05:58:52.283Z,69.62
2022-10-20T05:59:54.561Z,69.77
2022-10-20T06:01:09.270Z,69.83
2022-10-20T06:02:12.197Z,69.68
2022-10-20T06:03:17.410Z,69.69
2022-10-20T06:04:28.172Z,69.77
2022-10-20T06:05:30.374Z,69.87
2022-10-20T06:06:32.574Z,69.93
2022-10-20T06:07:34.808Z,69.87
2022-10-20T06:08:37.227Z,70.11
2022-10-20T06:09:39.883Z,70.10
2022-10-20T06:10:42.112Z,70.08
2022-10-20T06:11:54.869Z,70.14
2022-10-20T06:12:57.268Z,70.03
2022-10-20T06:13:59.475Z,70.15
2022-10-20T06:15:01.670Z,70.13
2022-10-20T06:16:08.430Z,70.06
2022-10-20T06:17:12.992Z,70.25
2022-10-20T06:18:15.203Z,70.28
2022-10-20T06:19:17.489Z,70.24
2022-10-20T06:20:19.743Z,70.45
2022-10-20T06:21:26.314Z,70.45
2022-10-20T06:22:28.547Z,70.54
2022-10-20T06:23:30.854Z,70.65
2022-10-20T06:24:33.938Z,70.68
2022-10-20T06:25:39.260Z,71.04
2022-10-20T06:26:41.471Z,71.44
2022-10-20T06:27:44.638Z,71.87
2022-10-20T06:28:52.767Z,72.50
2022-10-20T06:29:55.035Z,72.90
2022-10-20T06:30:57.365Z,74.03
2022-10-20T06:31:59.553Z,74.87
2022-10-20T06:33:01.742Z,75.74
2022-10-20T06:34:06.001Z,76.44
2022-10-20T06:35:08.365Z,76.96
2022-10-20T06:36:11.768Z,77.34
2022-10-20T06:37:13.999Z,77.99
2022-10-20T06:38:16.199Z,78.53
2022-10-20T06:39:20.950Z,79.15
2022-10-20T06:40:25.484Z,79.70
2022-10-20T06:41:29.529Z,80.15
2022-10-20T06:42:31.714Z,80.53
2022-10-20T06:43:35.832Z,80.92
2022-10-20T06:44:38.086Z,81.21
2022-10-20T06:45:40.270Z,81.57
2022-10-20T06:46:43.602Z,81.39
2022-10-20T06:47:45.818Z,81.37
2022-10-20T06:48:48.069Z,80.93
2022-10-20T06:49:50.329Z,80.58
2022-10-20T06:51:01.103Z,79.96
2022-10-20T06:53:32.053Z,78.71
2022-10-20T06:54:34.231Z,78.37
2022-10-20T06:55:36.464Z,77.66
2022-10-20T06:56:39.397Z,77.03
2022-10-20T06:57:42.533Z,76.56
2022-10-20T06:58:47.820Z,75.41
2022-10-20T06:59:50.015Z,74.28
2022-10-20T07:01:10.044Z,73.08
2022-10-20T07:02:13.502Z,72.85
2022-10-20T07:03:15.738Z,72.22
2022-10-20T07:04:18.060Z,72.04
2022-10-20T07:05:21.975Z,71.33
2022-10-20T07:06:38.702Z,70.51
2022-10-20T07:07:42.197Z,70.13
2022-10-20T07:08:44.573Z,69.85
2022-10-20T07:09:46.781Z,69.32
2022-10-20T07:10:58.346Z,68.43
2022-10-20T07:12:00.637Z,68.04
2022-10-20T07:13:02.828Z,67.28
2022-10-20T07:14:05.542Z,66.93
2022-10-20T07:15:08.172Z,66.56
2022-10-20T07:16:13.687Z,66.13
2022-10-20T07:17:18.115Z,65.98
2022-10-20T07:18:20.817Z,65.33
2022-10-20T07:19:25.615Z,64.91
2022-10-20T07:20:27.940Z,64.30
2022-10-20T07:21:35.717Z,63.90
2022-10-20T07:22:40.343Z,63.49
2022-10-20T07:23:43.156Z,62.71
2022-10-20T07:24:45.609Z,62.34
2022-10-20T07:25:47.793Z,61.76
2022-10-20T07:26:50.006Z,61.30
2022-10-20T07:27:52.204Z,60.80
2022-10-20T07:28:56.870Z,60.52
2022-10-20T07:29:59.107Z,60.30
2022-10-20T07:31:10.541Z,59.55
2022-10-20T07:32:12.781Z,59.64
2022-10-20T07:33:15.004Z,59.05
2022-10-20T07:34:25.714Z,58.72
2022-10-20T07:35:30.442Z,58.19
2022-10-20T07:36:36.078Z,57.69
2022-10-20T07:37:38.857Z,57.40
2022-10-20T07:38:41.748Z,57.24
2022-10-20T07:39:43.920Z,56.73
2022-10-20T07:40:46.223Z,56.38
2022-10-20T07:41:48.786Z,56.28
2022-10-20T07:42:56.961Z,55.74
2022-10-20T07:43:59.380Z,55.93
2022-10-20T07:45:01.741Z,55.50
2022-10-20T07:46:04.561Z,54.99
2022-10-20T07:47:06.829Z,54.94
2022-10-20T07:48:10.079Z,54.52
2022-10-20T07:50:34.882Z,53.59
2022-10-20T07:51:37.114Z,53.34
2022-10-20T07:52:39.711Z,53.06
2022-10-20T07:53:42.213Z,52.85
2022-10-20T07:54:45.068Z,53.19
2022-10-20T07:55:47.292Z,52.85
2022-10-20T07:56:49.800Z,52.91
2022-10-20T07:57:52.081Z,52.48
2022-10-20T07:58:55.192Z,52.18
2022-10-20T07:59:57.679Z,51.91
2022-10-20T08:00:59.875Z,51.69
2022-10-20T08:02:02.352Z,51.78
2022-10-20T08:03:04.647Z,51.30
2022-10-20T08:04:06.920Z,51.19
2022-10-20T08:05:09.434Z,50.70
2022-10-20T08:06:11.707Z,50.82
2022-10-20T08:07:13.907Z,50.63
2022-10-20T08:08:16.063Z,50.73
2022-10-20T08:09:18.285Z,50.27
2022-10-20T08:10:20.504Z,50.06
2022-10-20T08:11:23.023Z,49.72
2022-10-20T08:12:25.350Z,49.72
2022-10-20T08:13:31.343Z,49.80
2022-10-20T08:14:35.329Z,49.35
2022-10-20T08:15:41.225Z,49.25
2022-10-20T08:16:50.279Z,48.99
2022-10-20T08:17:52.537Z,49.02
2022-10-20T08:21:36.254Z,48.88
2022-10-20T08:22:41.237Z,47.98
2022-10-20T08:23:46.599Z,47.43
2022-10-20T08:24:48.847Z,47.85
2022-10-20T08:25:56.450Z,47.57
2022-10-20T08:26:58.822Z,47.80
2022-10-20T08:28:01.080Z,48.03
2022-10-20T08:29:03.369Z,47.74
2022-10-20T08:30:23.030Z,47.96
2022-10-20T08:31:26.460Z,47.59
2022-10-20T08:32:28.735Z,47.46
2022-10-20T08:33:32.017Z,46.45
2022-10-20T08:34:34.214Z,45.96
2022-10-20T08:35:36.499Z,45.87
2022-10-20T08:36:38.854Z,45.85
2022-10-20T08:37:41.113Z,45.33
2022-10-20T08:38:43.997Z,45.16
2022-10-20T08:39:46.144Z,44.46
2022-10-20T08:40:48.398Z,44.67
2022-10-20T08:42:09.196Z,44.45
2022-10-20T08:43:17.889Z,44.79
2022-10-20T08:44:25.560Z,44.68
2022-10-20T08:45:29.419Z,44.80
2022-10-20T08:46:35.411Z,44.46
2022-10-20T08:47:43.988Z,43.87
2022-10-20T08:48:47.654Z,44.41
2022-10-20T08:49:49.973Z,44.62
2022-10-20T08:50:54.063Z,43.92
2022-10-20T08:51:56.329Z,43.70
2022-10-20T08:53:00.912Z,42.71
2022-10-20T08:54:04.562Z,43.23
2022-10-20T08:55:07.717Z,42.88
2022-10-20T08:56:14.004Z,42.83
2022-10-20T08:57:31.495Z,43.17
2022-10-20T08:58:35.651Z,43.02
2022-10-20T08:59:39.849Z,42.92
2022-10-20T09:00:43.461Z,43.22
2022-10-20T09:01:45.805Z,42.58
2022-10-20T09:02:49.640Z,42.12
2022-10-20T09:04:02.855Z,42.77
2022-10-20T09:05:08.319Z,42.68
2022-10-20T09:06:15.950Z,43.26
2022-10-20T09:07:28.770Z,43.04
2022-10-20T09:08:32.599Z,43.76
2022-10-20T09:09:35.759Z,43.11
2022-10-20T09:10:42.591Z,43.23
2022-10-20T09:11:45.117Z,42.89
2022-10-20T09:12:48.953Z,43.10
2022-10-20T09:13:51.516Z,42.49
2022-10-20T09:14:54.699Z,43.08
2022-10-20T09:16:04.882Z,42.83
2022-10-20T09:17:15.180Z,43.22
2022-10-20T09:18:19.049Z,42.84
2022-10-20T09:19:23.059Z,42.43
2022-10-20T09:20:33.066Z,42.79
2022-10-20T09:21:38.415Z,43.03
2022-10-20T09:22:40.618Z,42.91
2022-10-20T09:23:45.372Z,43.61
2022-10-20T09:24:49.210Z,43.75
2022-10-20T09:25:52.684Z,43.15
2022-10-20T09:26:59.267Z,43.33
2022-10-20T09:28:02.922Z,43.47
2022-10-20T09:29:14.217Z,43.03
2022-10-20T09:30:19.589Z,42.90
2022-10-20T09:31:35.516Z,43.15
2022-10-20T09:32:47.019Z,42.68
2022-10-20T09:33:49.921Z,42.37
2022-10-20T09:35:11.101Z,42.66
2022-10-20T09:36:21.268Z,43.13
2022-10-20T09:37:29.665Z,42.81
2022-10-20T09:38:35.285Z,42.69
2022-10-20T09:39:47.683Z,42.51
2022-10-20T09:41:08.323Z,42.52
2022-10-20T09:42:22.901Z,42.36
2022-10-20T09:43:26.555Z,42.00
2022-10-20T09:46:09.173Z,41.87
2022-10-20T09:47:15.824Z,41.71
2022-10-20T09:48:24.357Z,41.71
2022-10-20T09:49:31.808Z,41.80
2022-10-20T09:50:37.274Z,41.74
2022-10-20T09:51:47.843Z,41.81
2022-10-20T09:52:50.352Z,41.64
2022-10-20T09:54:01.028Z,42.18
2022-10-20T09:55:29.015Z,42.20
2022-10-20T09:56:41.398Z,42.18
2022-10-20T09:57:50.311Z,42.22
2022-10-20T09:58:53.085Z,42.39
2022-10-20T10:00:01.295Z,42.98
2022-10-20T10:01:16.719Z,43.14
2022-10-20T10:02:18.934Z,42.87
2022-10-20T10:03:23.517Z,42.42
2022-10-20T10:04:33.123Z,42.32
2022-10-20T10:05:35.620Z,42.42
2022-10-20T10:06:38.782Z,42.14
2022-10-20T10:07:41.022Z,42.30
2022-10-20T10:08:46.435Z,42.25
2022-10-20T10:09:55.886Z,42.87
2022-10-20T10:11:19.779Z,42.46
2022-10-20T10:12:24.283Z,42.59
2022-10-20T10:13:29.309Z,42.41
2022-10-20T10:14:33.871Z,42.56
2022-10-20T10:15:38.090Z,42.56
2022-10-20T10:16:42.761Z,42.56
2022-10-20T10:17:45.133Z,42.58
2022-10-20T10:19:03.013Z,42.51
2022-10-20T10:20:14.176Z,42.31
2022-10-20T10:21:17.697Z,42.50
2022-10-20T10:22:20.096Z,42.13
2022-10-20T10:23:25.046Z,42.27
2022-10-20T10:24:39.700Z,42.33
2022-10-20T10:25:41.920Z,42.72
2022-10-20T10:26:55.422Z,41.59
2022-10-20T10:28:04.655Z,42.26
2022-10-20T10:29:17.761Z,42.83
2022-10-20T10:30:40.879Z,42.57
2022-10-20T10:31:51.822Z,42.71
2022-10-20T10:32:54.187Z,42.42
2022-10-20T10:34:16.286Z,42.56
2022-10-20T10:35:30.115Z,42.16
2022-10-20T10:36:35.775Z,42.54
2022-10-20T10:37:42.515Z,42.04
2022-10-20T10:38:44.898Z,42.10
2022-10-20T10:39:47.194Z,42.00
2022-10-20T10:41:20.263Z,42.20
2022-10-20T10:42:55.010Z,42.25
2022-10-20T10:44:10.186Z,42.20
2022-10-20T10:45:24.545Z,42.08
2022-10-20T10:46:31.243Z,42.27
2022-10-20T10:48:12.664Z,42.48
2022-10-20T10:49:24.914Z,42.63
2022-10-20T10:50:34.850Z,42.40
2022-10-20T10:51:57.701Z,42.27
2022-10-20T10:53:31.174Z,42.34
2022-10-20T10:54:54.840Z,42.19
2022-10-20T10:56:22.852Z,41.89
2022-10-20T10:58:16.398Z,42.28
2022-10-20T10:59:24.397Z,41.86
2022-10-20T11:00:48.445Z,41.30
2022-10-20T11:02:09.203Z,41.78
2022-10-20T11:03:17.443Z,41.91
2022-10-20T11:04:36.350Z,41.85
2022-10-20T11:06:02.553Z,42.21
2022-10-20T11:07:16.920Z,41.75
2022-10-20T11:08:52.773Z,42.13
2022-10-20T11:10:02.144Z,41.75
2022-10-20T11:11:29.568Z,41.96
2022-10-20T11:12:53.292Z,41.78
2022-10-20T11:14:20.435Z,42.32
2022-10-20T11:15:30.387Z,41.59
2022-10-20T11:16:52.080Z,41.67
2022-10-20T11:18:00.161Z,41.97
2022-10-20T11:19:24.273Z,42.49
2022-10-20T11:20:42.407Z,42.09
2022-10-20T11:22:22.840Z,42.29
2022-10-20T11:23:47.082Z,42.02
2022-10-20T11:24:49.345Z,42.05
2022-10-20T11:26:03.028Z,42.09
2022-10-20T11:27:13.096Z,41.80
2022-10-20T11:28:44.603Z,42.33
2022-10-20T11:29:51.349Z,41.82
2022-10-20T11:30:55.386Z,41.58
2022-10-20T11:32:09.830Z,42.01
2022-10-20T11:33:19.200Z,42.18
2022-10-20T11:34:25.928Z,42.19
2022-10-20T11:35:53.329Z,42.52
2022-10-20T11:37:20.199Z,42.61
2022-10-20T11:38:31.559Z,42.59
2022-10-20T11:39:43.009Z,42.47
2022-10-20T11:40:52.112Z,42.44
2022-10-20T11:41:59.695Z,42.33
2022-10-20T11:43:25.937Z,42.15
2022-10-20T11:44:34.750Z,41.99
2022-10-20T11:45:43.253Z,41.80
2022-10-20T11:47:00.666Z,42.31
2022-10-20T11:48:16.991Z,42.31
2022-10-20T11:49:19.812Z,42.42
2022-10-20T11:50:22.958Z,41.84
2022-10-20T11:51:31.044Z,41.74
2022-10-20T11:53:07.845Z,41.79
2022-10-20T11:54:46.475Z,42.02
2022-10-20T11:56:09.688Z,42.05
2022-10-20T11:57:29.534Z,41.70
2022-10-20T11:58:40.544Z,41.79
2022-10-20T12:00:09.871Z,42.13
2022-10-20T12:01:33.350Z,42.23
2022-10-20T12:03:02.901Z,42.37
2022-10-20T12:04:38.689Z,42.30
2022-10-20T12:06:18.275Z,42.02
2022-10-20T12:08:00.822Z,42.06
2022-10-20T12:10:07.845Z,41.97
2022-10-20T12:11:21.641Z,41.64
2022-10-20T12:12:37.741Z,41.57
2022-10-20T12:13:56.333Z,41.95
2022-10-20T12:15:21.422Z,41.94
2022-10-20T12:16:54.558Z,42.07
2022-10-20T12:18:05.759Z,41.77
2022-10-20T12:19:22.553Z,41.99
2022-10-20T12:20:24.699Z,41.37
2022-10-20T12:21:56.874Z,41.52
2022-10-20T12:22:59.359Z,41.29
2022-10-20T12:24:05.863Z,41.72
2022-10-20T12:25:08.072Z,41.35
2022-10-20T12:26:42.574Z,41.58
2022-10-20T12:27:47.015Z,41.50
2022-10-20T12:28:49.345Z,41.56
2022-10-20T12:29:54.490Z,41.27
2022-10-20T12:31:04.212Z,41.43
2022-10-20T12:32:21.612Z,41.67
2022-10-20T12:33:42.531Z,41.35
2022-10-20T12:34:44.693Z,41.18
2022-10-20T12:36:13.973Z,41.31
2022-10-20T12:37:27.157Z,41.04
2022-10-20T12:38:30.859Z,40.89
2022-10-20T12:39:33.100Z,40.80
2022-10-20T12:40:47.534Z,40.94
2022-10-20T12:42:05.384Z,41.00
2022-10-20T12:43:24.661Z,41.04
2022-10-20T12:44:31.553Z,40.70
2022-10-20T12:45:41.288Z,40.55
2022-10-20T12:46:52.921Z,40.57
2022-10-20T12:47:59.304Z,40.32
2022-10-20T12:49:08.114Z,40.84
2022-10-20T12:50:45.959Z,40.89
2022-10-20T12:51:55.749Z,40.85
2022-10-20T12:53:29.108Z,41.04
2022-10-20T12:54:46.165Z,41.31
2022-10-20T12:55:56.626Z,41.23
2022-10-20T12:57:04.591Z,41.59
2022-10-20T12:58:35.467Z,41.28
2022-10-20T12:59:39.280Z,40.90
2022-10-20T13:00:47.469Z,41.18
2022-10-20T13:02:08.354Z,41.32
2022-10-20T13:03:32.532Z,41.60
2022-10-20T13:05:05.804Z,41.64
2022-10-20T13:06:22.988Z,41.65
2022-10-20T13:07:47.186Z,41.97
2022-10-20T13:09:05.071Z,41.52
2022-10-20T13:10:37.803Z,41.47
2022-10-20T13:11:56.168Z,41.51
2022-10-20T13:13:01.391Z,41.12
2022-10-20T13:14:27.137Z,41.63
2022-10-20T13:15:35.524Z,41.35
2022-10-20T13:16:40.624Z,40.96
2022-10-20T13:17:53.095Z,41.51
2022-10-20T13:18:55.686Z,41.21
2022-10-20T13:20:07.395Z,41.26
2022-10-20T13:21:33.400Z,41.86
2022-10-20T13:22:55.268Z,41.93
2022-10-20T13:24:03.987Z,41.65
2022-10-20T13:25:32.667Z,41.83
2022-10-20T13:26:46.506Z,41.94
2022-10-20T13:27:50.022Z,41.59
2022-10-20T13:28:55.486Z,41.60
2022-10-20T13:29:57.790Z,41.86
2022-10-20T13:31:31.051Z,41.88
2022-10-20T13:32:39.995Z,41.80
2022-10-20T13:34:05.654Z,41.70
2022-10-20T13:35:13.441Z,42.03
2022-10-20T13:36:29.314Z,41.76
2022-10-20T13:37:34.243Z,41.76
2022-10-20T13:39:17.576Z,42.23
2022-10-20T13:40:38.304Z,41.72
2022-10-20T13:44:03.015Z,41.67
2022-10-20T13:44:03.020Z,41.85
2022-10-20T13:45:28.265Z,41.75
2022-10-20T13:48:57.322Z,42.06
2022-10-20T13:52:16.470Z,42.05
2022-10-20T13:53:29.552Z,42.19
2022-10-20T13:54:37.046Z,41.94
2022-10-20T13:56:06.391Z,42.19
2022-10-20T13:57:26.438Z,42.14
2022-10-20T13:58:28.872Z,42.42
2022-10-20T13:59:31.787Z,42.28
2022-10-20T14:00:43.837Z,42.38
2022-10-20T14:01:49.242Z,42.29
2022-10-20T14:03:03.488Z,42.68
2022-10-20T14:04:27.804Z,42.64
2022-10-20T14:05:36.948Z,42.95
2022-10-20T14:06:39.217Z,42.95
2022-10-20T14:07:45.988Z,43.07
2022-10-20T14:08:48.278Z,43.17
2022-10-20T14:09:58.289Z,43.15
2022-10-20T14:11:04.802Z,43.20
2022-10-20T14:12:15.801Z,43.25
2022-10-20T14:13:21.636Z,43.39
2022-10-20T14:14:28.545Z,43.50
2022-10-20T14:15:40.235Z,43.61
2022-10-20T14:16:56.654Z,43.78
2022-10-20T14:18:19.748Z,43.80
2022-10-20T14:19:26.094Z,43.78
2022-10-20T14:20:29.682Z,44.05
2022-10-20T14:21:50.925Z,44.14
2022-10-20T14:22:54.710Z,43.97
2022-10-20T14:24:02.885Z,44.33
2022-10-20T14:25:07.575Z,44.46
2022-10-20T14:26:19.681Z,44.34
2022-10-20T14:27:33.139Z,44.44
2022-10-20T14:28:36.514Z,44.38
2022-10-20T14:29:42.487Z,44.37
2022-10-20T14:30:50.321Z,44.67
2022-10-20T14:31:52.924Z,44.34
2022-10-20T14:32:55.598Z,44.41
2022-10-20T14:33:58.073Z,44.73
2022-10-20T14:35:01.429Z,44.39
2022-10-20T14:36:04.791Z,44.48
2022-10-20T14:37:19.689Z,44.70
2022-10-20T14:38:29.127Z,44.77
2022-10-20T14:39:39.877Z,44.90
2022-10-20T14:40:53.396Z,44.88
2022-10-20T14:41:58.962Z,44.95
2022-10-20T14:43:05.026Z,44.80
2022-10-20T14:44:15.519Z,45.03
2022-10-20T14:45:24.203Z,44.98
2022-10-20T14:46:30.124Z,45.14
2022-10-20T14:47:41.133Z,45.35
2022-10-20T14:48:49.164Z,45.33
2022-10-20T14:49:54.681Z,45.29